createdAt,value
2023-03-28T00:01:11.682Z,75.40
2023-03-28T00:03:40.567Z,76.90
2023-03-28T00:06:12.989Z,77.00
2023-03-28T00:08:41.532Z,79.00
2023-03-28T00:11:12.970Z,76.60
2023-03-28T00:13:41.056Z,74.60
2023-03-28T00:16:13.244Z,73.80
2023-03-28T00:18:43.003Z,77.10
2023-03-28T00:21:27.541Z,76.60
2023-03-28T00:23:57.640Z,78.80
2023-03-28T00:26:27.924Z,77.00
2023-03-28T00:28:57.653Z,76.00
2023-03-28T00:31:30.225Z,78.90
2023-03-28T00:33:58.388Z,76.90
2023-03-28T00:36:29.860Z,76.20
2023-03-28T00:38:58.638Z,78.40
2023-03-28T00:41:32.156Z,76.70
2023-03-28T00:44:04.824Z,78.10
2023-03-28T00:46:40.656Z,78.40
2023-03-28T00:49:16.037Z,79.80
2023-03-28T00:52:02.024Z,78.20
2023-03-28T00:54:40.986Z,76.80
2023-03-28T00:57:11.507Z,76.40
2023-03-28T00:59:41.359Z,77.40
2023-03-28T01:02:09.566Z,77.00
2023-03-28T01:04:50.542Z,75.50
2023-03-28T01:07:19.134Z,76.50
2023-03-28T01:10:00.236Z,79.60
2023-03-28T01:12:28.309Z,77.70
2023-03-28T01:14:56.725Z,79.20
2023-03-28T01:17:28.994Z,78.20
2023-03-28T01:20:07.568Z,77.70
2023-03-28T01:22:59.050Z,77.70
2023-03-28T01:25:52.862Z,77.60
2023-03-28T01:31:43.158Z,76.70
2023-03-28T01:34:17.182Z,77.70
2023-03-28T01:36:54.356Z,77.90
2023-03-28T01:39:29.147Z,77.30
2023-03-28T01:42:11.804Z,77.50
2023-03-28T01:45:23.043Z,78.40
2023-03-28T01:48:24.074Z,77.00
2023-03-28T01:52:15.504Z,77.20
2023-03-28T01:55:10.583Z,76.40
2023-03-28T01:57:49.447Z,75.30
2023-03-28T02:00:35.055Z,76.30
2023-03-28T02:03:25.463Z,75.30
2023-03-28T02:05:57.245Z,75.50
2023-03-28T02:08:30.376Z,75.90
2023-03-28T02:11:00.508Z,75.20
2023-03-28T02:16:14.650Z,76.00
2023-03-28T02:18:49.803Z,76.10
2023-03-28T02:21:43.827Z,75.00
2023-03-28T02:24:15.011Z,75.70
2023-03-28T02:26:43.901Z,75.20
2023-03-28T02:29:17.244Z,74.90
2023-03-28T02:31:46.722Z,74.20
2023-03-28T02:34:15.007Z,73.70
2023-03-28T02:36:54.253Z,74.60
2023-03-28T02:40:02.402Z,74.10
2023-03-28T02:43:24.084Z,75.40
2023-03-28T02:46:21.895Z,74.50
2023-03-28T02:48:59.329Z,76.30
2023-03-28T02:51:37.177Z,74.40
2023-03-28T02:54:23.741Z,73.90
2023-03-28T02:57:18.628Z,74.80
2023-03-28T03:03:39.138Z,72.50
2023-03-28T03:06:08.061Z,73.40
2023-03-28T03:08:36.478Z,74.80
2023-03-28T03:11:07.625Z,74.00
2023-03-28T03:13:36.000Z,73.90
2023-03-28T03:16:05.605Z,74.00
2023-03-28T03:18:36.177Z,74.20
2023-03-28T03:21:04.586Z,74.40
2023-03-28T03:23:32.616Z,74.20
2023-03-28T03:26:01.266Z,74.80
2023-03-28T03:28:30.375Z,73.90
2023-03-28T03:30:59.167Z,73.80
2023-03-28T03:33:27.550Z,73.70
2023-03-28T03:35:55.909Z,73.20
2023-03-28T03:38:24.001Z,73.80
2023-03-28T03:40:52.047Z,73.70
2023-03-28T03:43:20.261Z,73.00
2023-03-28T03:45:48.615Z,72.10
2023-03-28T03:48:16.690Z,73.40
2023-03-28T03:50:44.701Z,73.40
2023-03-28T03:53:12.965Z,71.90
2023-03-28T03:55:41.940Z,72.30
2023-03-28T03:58:12.859Z,72.40
2023-03-28T04:00:43.486Z,71.80
2023-03-28T04:03:24.263Z,71.40
2023-03-28T04:05:55.514Z,71.60
2023-03-28T04:08:26.320Z,72.70
2023-03-28T04:10:54.436Z,72.10
2023-03-28T04:13:22.475Z,72.10
2023-03-28T04:15:50.665Z,72.10
2023-03-28T04:18:20.803Z,71.90
2023-03-28T04:20:57.295Z,71.00
2023-03-28T04:23:26.213Z,71.50
2023-03-28T04:25:57.665Z,71.30
2023-03-28T04:28:27.956Z,70.10
2023-03-28T04:31:00.910Z,70.80
2023-03-28T04:33:30.938Z,70.10
2023-03-28T04:36:02.499Z,70.30
2023-03-28T04:38:37.288Z,69.60
2023-03-28T04:41:08.886Z,69.40
2023-03-28T04:43:39.328Z,69.60
2023-03-28T04:46:07.660Z,69.60
2023-03-28T04:48:35.854Z,69.50
2023-03-28T04:51:04.974Z,69.80
2023-03-28T04:53:33.160Z,69.40
2023-03-28T04:56:02.357Z,68.90
2023-03-28T04:58:30.611Z,69.20
2023-03-28T05:01:03.862Z,69.10
2023-03-28T05:03:37.200Z,69.10
2023-03-28T05:06:12.573Z,68.80
2023-03-28T05:09:27.032Z,68.50
2023-03-28T05:11:58.632Z,68.60
2023-03-28T05:14:32.526Z,68.60
2023-03-28T05:17:17.946Z,67.80
2023-03-28T05:19:46.127Z,67.60
2023-03-28T05:22:14.774Z,67.60
2023-03-28T05:24:50.792Z,67.50
2023-03-28T05:27:18.975Z,67.50
2023-03-28T05:30:22.765Z,67.50
2023-03-28T05:32:50.825Z,67.30
2023-03-28T05:35:19.096Z,66.90
2023-03-28T05:37:50.360Z,66.90
2023-03-28T05:40:18.603Z,66.80
2023-03-28T05:42:47.209Z,66.50
2023-03-28T05:47:57.734Z,67.10
2023-03-28T05:50:29.958Z,66.30
2023-03-28T05:53:01.116Z,66.30
2023-03-28T05:55:41.345Z,66.30
2023-03-28T05:58:09.946Z,66.40
2023-03-28T06:03:08.101Z,66.10
2023-03-28T06:05:37.490Z,66.30
2023-03-28T06:08:06.476Z,66.20
2023-03-28T06:10:34.796Z,66.10
2023-03-28T06:13:05.202Z,65.70
2023-03-28T06:15:34.663Z,65.70
2023-03-28T06:18:03.690Z,65.90
2023-03-28T06:20:32.000Z,65.70
2023-03-28T06:23:00.521Z,65.20
2023-03-28T06:25:30.992Z,65.10
2023-03-28T06:28:02.653Z,65.30
2023-03-28T06:30:32.865Z,65.10
2023-03-28T06:33:03.504Z,65.20
2023-03-28T06:35:34.487Z,65.00
2023-03-28T06:38:03.699Z,65.10
2023-03-28T06:40:32.789Z,65.00
2023-03-28T06:43:01.114Z,65.10
2023-03-28T06:45:29.357Z,64.90
2023-03-28T06:47:59.825Z,65.00
2023-03-28T06:50:28.155Z,64.80
2023-03-28T06:52:57.282Z,64.70
2023-03-28T06:55:26.132Z,64.40
2023-03-28T06:58:01.104Z,64.10
2023-03-28T07:00:29.295Z,64.10
2023-03-28T07:02:58.611Z,63.30
2023-03-28T07:05:27.576Z,63.40
2023-03-28T07:07:56.141Z,62.50
2023-03-28T07:10:24.581Z,62.90
2023-03-28T07:12:56.828Z,62.20
2023-03-28T07:15:27.309Z,62.90
2023-03-28T07:17:58.205Z,63.10
2023-03-28T07:20:30.693Z,62.80
2023-03-28T07:22:59.168Z,62.80
2023-03-28T07:25:27.378Z,62.80
2023-03-28T07:27:55.678Z,62.70
2023-03-28T07:30:24.771Z,62.50
2023-03-28T07:33:01.785Z,62.50
2023-03-28T07:35:45.161Z,62.20
2023-03-28T07:38:14.384Z,62.50
2023-03-28T07:40:44.464Z,61.70
2023-03-28T07:43:13.135Z,62.10
2023-03-28T07:45:45.076Z,61.70
2023-03-28T07:48:15.297Z,62.30
2023-03-28T07:50:45.116Z,62.00
2023-03-28T07:55:59.081Z,61.70
2023-03-28T07:58:29.194Z,61.40
2023-03-28T08:00:57.424Z,61.80
2023-03-28T08:03:25.989Z,61.60
2023-03-28T08:05:54.660Z,61.70
2023-03-28T08:08:22.779Z,61.20
2023-03-28T08:10:53.397Z,61.30
2023-03-28T08:13:24.437Z,61.50
2023-03-28T08:15:58.213Z,61.20
2023-03-28T08:18:26.943Z,61.50
2023-03-28T08:21:03.729Z,61.60
2023-03-28T08:23:32.360Z,61.70
2023-03-28T08:26:10.368Z,61.80
2023-03-28T08:28:39.585Z,61.60
2023-03-28T08:31:17.303Z,61.40
2023-03-28T08:33:48.839Z,61.20
2023-03-28T08:36:16.928Z,61.70
2023-03-28T08:38:47.413Z,61.70
2023-03-28T08:41:48.365Z,61.60
2023-03-28T08:44:34.589Z,61.70
2023-03-28T08:47:09.750Z,61.90
2023-03-28T08:49:56.904Z,62.00
2023-03-28T08:53:08.807Z,62.20
2023-03-28T08:55:43.533Z,62.20
2023-03-28T08:58:27.277Z,62.30
2023-03-28T09:00:55.457Z,62.40
2023-03-28T09:03:25.911Z,62.50
2023-03-28T09:06:05.143Z,62.50
2023-03-28T09:09:11.814Z,62.80
2023-03-28T09:12:12.082Z,62.80
2023-03-28T09:15:07.460Z,63.10
2023-03-28T09:17:46.095Z,63.10
2023-03-28T09:20:59.292Z,63.10
2023-03-28T09:24:05.857Z,63.10
2023-03-28T09:27:02.385Z,63.20
2023-03-28T09:29:33.358Z,63.20
2023-03-28T09:32:05.370Z,63.20
2023-03-28T09:34:46.834Z,63.20
2023-03-28T09:37:34.565Z,63.40
2023-03-28T09:40:15.543Z,64.10
2023-03-28T09:42:56.274Z,63.30
2023-03-28T09:45:42.603Z,63.20
2023-03-28T09:48:33.868Z,63.20
2023-03-28T09:51:03.673Z,63.10
2023-03-28T09:53:38.072Z,63.20
2023-03-28T09:56:34.814Z,63.20
2023-03-28T09:59:05.674Z,63.10
2023-03-28T10:01:48.927Z,63.20
2023-03-28T10:04:40.710Z,63.10
2023-03-28T10:07:11.877Z,63.00
2023-03-28T10:09:50.908Z,63.00
2023-03-28T10:12:40.105Z,62.70
2023-03-28T10:15:28.433Z,62.70
2023-03-28T10:17:58.119Z,62.40
2023-03-28T10:20:26.163Z,62.40
2023-03-28T10:22:56.487Z,62.50
2023-03-28T10:25:46.175Z,62.60
2023-03-28T10:28:37.064Z,62.80
2023-03-28T10:31:07.880Z,63.10
2023-03-28T10:33:41.657Z,63.40
2023-03-28T10:36:13.181Z,63.50
2023-03-28T10:38:44.591Z,63.70
2023-03-28T10:41:33.714Z,63.80
2023-03-28T10:44:27.260Z,63.90
2023-03-28T10:46:57.817Z,63.90
2023-03-28T10:49:28.901Z,64.00
2023-03-28T10:51:57.053Z,64.30
2023-03-28T10:54:31.702Z,64.40
2023-03-28T10:57:12.823Z,64.50
2023-03-28T10:59:51.672Z,64.50
2023-03-28T11:02:27.539Z,64.60
2023-03-28T11:05:12.256Z,64.80
2023-03-28T11:07:58.504Z,64.80
2023-03-28T11:10:39.007Z,64.80
2023-03-28T11:13:41.165Z,65.10
2023-03-28T11:16:30.806Z,65.40
2023-03-28T11:19:19.967Z,66.00
2023-03-28T11:22:06.630Z,66.10
2023-03-28T11:24:44.176Z,65.90
2023-03-28T11:27:24.495Z,65.90
2023-03-28T11:30:11.575Z,66.10
2023-03-28T11:32:51.202Z,66.00
2023-03-28T11:35:34.410Z,67.30
2023-03-28T11:38:12.049Z,67.40
2023-03-28T11:41:04.289Z,67.00
2023-03-28T11:43:45.201Z,66.70
2023-03-28T11:46:17.741Z,66.70
2023-03-28T11:49:21.725Z,66.70
2023-03-28T11:52:13.581Z,66.30
2023-03-28T11:55:09.661Z,66.50
2023-03-28T11:57:59.805Z,66.70
2023-03-28T12:00:33.237Z,66.90
2023-03-28T12:03:23.837Z,67.40
2023-03-28T12:06:20.567Z,66.80
2023-03-28T12:09:06.885Z,66.80
2023-03-28T12:11:57.898Z,66.90
2023-03-28T12:14:44.496Z,66.90
2023-03-28T12:17:26.682Z,66.90
2023-03-28T12:19:55.059Z,66.80
2023-03-28T12:22:50.527Z,67.30
2023-03-28T12:25:41.426Z,67.80
2023-03-28T12:28:24.398Z,67.40
2023-03-28T12:31:16.752Z,67.70
2023-03-28T12:34:17.055Z,68.00
2023-03-28T12:37:12.518Z,67.70
2023-03-28T12:39:54.780Z,68.10
2023-03-28T12:42:26.646Z,68.20
2023-03-28T12:45:01.472Z,68.40
2023-03-28T12:47:37.068Z,69.10
2023-03-28T12:50:16.942Z,68.80
2023-03-28T12:52:46.979Z,68.70
2023-03-28T12:55:35.057Z,69.40
2023-03-28T12:58:34.428Z,68.90
2023-03-28T13:01:22.622Z,69.70
2023-03-28T13:04:22.920Z,69.50
2023-03-28T13:07:02.109Z,69.80
2023-03-28T13:09:52.160Z,69.40
2023-03-28T13:12:32.475Z,69.70
2023-03-28T13:15:15.891Z,70.10
2023-03-28T13:17:48.512Z,69.70
2023-03-28T13:20:16.712Z,70.80
2023-03-28T13:22:53.997Z,71.20
2023-03-28T13:25:35.431Z,70.60
2023-03-28T13:28:12.419Z,71.40
2023-03-28T13:30:47.710Z,71.20
2023-03-28T13:33:30.853Z,71.60
2023-03-28T13:35:58.921Z,71.70
2023-03-28T13:38:30.741Z,71.50
2023-03-28T13:41:07.305Z,72.60
2023-03-28T13:43:42.679Z,71.80
2023-03-28T13:46:23.013Z,72.90
2023-03-28T13:48:52.462Z,72.10
2023-03-28T13:51:26.533Z,72.00
2023-03-28T13:53:54.572Z,73.00
2023-03-28T13:56:31.846Z,72.90
2023-03-28T13:59:01.509Z,72.60
2023-03-28T14:01:46.343Z,72.50
2023-03-28T14:04:23.377Z,71.60
2023-03-28T14:06:53.836Z,71.40
2023-03-28T14:09:29.388Z,69.80
2023-03-28T14:12:14.546Z,72.40
2023-03-28T14:14:47.392Z,73.00
2023-03-28T14:17:22.776Z,69.60
2023-03-28T14:20:06.585Z,69.70
2023-03-28T14:22:52.715Z,69.60
2023-03-28T14:25:26.250Z,69.30
2023-03-28T14:27:56.547Z,69.40
2023-03-28T14:30:37.983Z,69.30
2023-03-28T14:33:20.596Z,69.20
2023-03-28T14:36:04.066Z,68.90
2023-03-28T14:38:38.543Z,68.60
2023-03-28T14:41:25.933Z,68.90
2023-03-28T14:43:57.123Z,69.40
2023-03-28T14:46:29.460Z,68.80
2023-03-28T14:49:00.155Z,68.50
2023-03-28T14:51:28.551Z,68.60
2023-03-28T14:53:57.193Z,68.60
2023-03-28T14:56:28.018Z,68.40
2023-03-28T14:59:00.686Z,68.40
2023-03-28T15:01:31.555Z,68.40
2023-03-28T15:04:06.102Z,68.50
2023-03-28T15:06:35.615Z,68.30
2023-03-28T15:09:31.673Z,68.20
2023-03-28T15:12:04.527Z,68.20
2023-03-28T15:14:40.416Z,68.20
2023-03-28T15:17:17.326Z,68.10
2023-03-28T15:19:47.132Z,68.00
2023-03-28T15:22:18.020Z,67.90
2023-03-28T15:24:46.647Z,67.90
2023-03-28T15:27:32.030Z,67.90
2023-03-28T15:30:07.029Z,67.70
2023-03-28T15:32:35.082Z,68.20
2023-03-28T15:35:20.634Z,69.00
2023-03-28T15:37:49.095Z,70.40
2023-03-28T15:40:20.046Z,71.10
2023-03-28T15:42:53.958Z,73.60
2023-03-28T15:45:22.674Z,73.90
2023-03-28T15:47:56.475Z,75.00
2023-03-28T15:50:38.643Z,78.10
2023-03-28T15:53:15.431Z,84.90
2023-03-28T15:55:45.106Z,79.90
2023-03-28T15:58:19.472Z,79.60
2023-03-28T16:00:53.130Z,81.50
2023-03-28T16:06:30.666Z,99.90
2023-03-28T16:36:47.949Z,92.80
2023-03-28T16:44:13.728Z,92.80
2023-03-28T16:46:41.858Z,88.40
2023-03-28T16:51:38.232Z,90.00
2023-03-28T16:54:06.689Z,87.60
2023-03-28T16:56:35.428Z,88.50
2023-03-28T16:59:08.048Z,88.70
2023-03-28T17:04:05.484Z,92.40
2023-03-28T17:09:04.780Z,94.30
2023-03-28T17:41:29.682Z,99.10
2023-03-28T17:56:24.753Z,92.70
2023-03-28T18:13:49.171Z,91.00
2023-03-28T18:23:45.591Z,99.90
2023-03-28T18:26:13.965Z,91.80
2023-03-28T18:28:41.993Z,92.30
2023-03-28T18:31:17.582Z,91.20
2023-03-28T18:33:46.294Z,92.50
2023-03-28T19:13:51.070Z,99.10
2023-03-28T19:16:22.244Z,93.60
2023-03-28T19:18:50.559Z,85.10
2023-03-28T19:21:19.385Z,86.00
2023-03-28T19:23:52.031Z,86.30
2023-03-28T19:26:20.176Z,86.40
2023-03-28T19:28:49.091Z,86.60
2023-03-28T19:31:18.094Z,88.80
2023-03-28T21:31:41.903Z,92.50
